< < Back
Terminal Aerodrome Forecast


Current Version              Previous Versions:   1  2  3  4  5  6  7  8  9  

Terminal Aerodrome Forecast

159
FTUS42 KCHS 200500
TAFSAV
TAF
KSAV 200534Z 2006/2106 04008KT P6SM VCSH SCT030 OVC100
     FM201200 05010G15KT P6SM SCT030 BKN080
      TEMPO 2012/2016 5SM SHRA BKN025 OVC080
     FM201600 04012G18KT 6SM -SHRA SCT015 BKN035
     FM210200 36007KT P6SM SCT025 BKN100=



Latest METAR

251
SAUS80 KWBC 201000 RRB
MTRSAV
METAR KSAV 200953Z 04007KT 10SM SCT003 BKN013 22/20 A3003 RMK AO2 SLP167
FIRST AUGMENTED OBSERVATION T02220200


USA.gov is the U.S. government's official web portal to all federal, state and local government web resources and services.